createdAt,value
2022-12-31T00:00:04.933Z,0.20
2022-12-31T00:02:31.816Z,0.38
2022-12-31T00:04:58.318Z,0.50
2022-12-31T00:07:24.877Z,0.30
2022-12-31T00:09:51.287Z,0.20
2022-12-31T00:12:17.765Z,0.30
2022-12-31T00:14:44.263Z,0.30
2022-12-31T00:17:10.756Z,0.38
2022-12-31T00:19:37.246Z,0.50
2022-12-31T00:22:03.706Z,0.22
2022-12-31T00:24:31.088Z,0.30
2022-12-31T00:26:57.626Z,0.20
2022-12-31T00:29:24.166Z,0.28
2022-12-31T00:31:50.697Z,0.20
2022-12-31T00:34:17.203Z,0.22
2022-12-31T00:36:45.889Z,0.30
2022-12-31T00:39:12.718Z,0.20
2022-12-31T00:41:39.184Z,0.40
2022-12-31T00:44:05.773Z,0.50
2022-12-31T00:46:32.421Z,0.32
2022-12-31T00:48:58.994Z,0.30
2022-12-31T00:51:29.003Z,0.38
2022-12-31T00:53:56.738Z,0.30
2022-12-31T00:56:26.202Z,0.30
2022-12-31T00:58:53.555Z,0.30
2022-12-31T01:01:24.292Z,0.30
2022-12-31T01:03:53.543Z,0.40
2022-12-31T01:06:21.011Z,0.90
2022-12-31T01:08:51.741Z,0.50
2022-12-31T01:11:24.581Z,0.40
2022-12-31T01:14:01.579Z,0.50
2022-12-31T01:16:42.863Z,0.40
2022-12-31T01:19:27.234Z,0.52
2022-12-31T01:21:54.044Z,0.50
2022-12-31T01:24:21.211Z,0.90
2022-12-31T01:26:49.074Z,0.55
2022-12-31T01:29:16.932Z,0.60
2022-12-31T01:31:43.393Z,0.70
2022-12-31T01:34:09.856Z,0.40
2022-12-31T01:36:37.491Z,0.40
2022-12-31T01:39:05.967Z,0.75
2022-12-31T01:41:39.336Z,0.95
2022-12-31T01:44:11.508Z,0.68
2022-12-31T01:46:42.750Z,0.68
2022-12-31T01:51:40.579Z,0.60
2022-12-31T01:54:09.166Z,0.52
2022-12-31T01:56:37.563Z,0.75
2022-12-31T01:59:07.835Z,0.50
2022-12-31T02:01:37.138Z,0.70
2022-12-31T02:04:09.312Z,0.50
2022-12-31T02:06:41.395Z,0.80
2022-12-31T02:09:08.792Z,0.50
2022-12-31T02:11:37.842Z,0.70
2022-12-31T02:14:13.130Z,0.80
2022-12-31T02:17:10.601Z,0.77
2022-12-31T02:20:15.720Z,0.50
2022-12-31T02:22:57.272Z,0.55
2022-12-31T02:25:52.895Z,0.63
2022-12-31T02:28:41.513Z,0.90
2022-12-31T02:31:36.934Z,0.75
2022-12-31T02:34:12.298Z,0.70
2022-12-31T02:36:43.337Z,0.82
2022-12-31T02:39:12.348Z,0.85
2022-12-31T02:41:50.725Z,0.80
2022-12-31T02:44:26.233Z,0.82
2022-12-31T02:47:10.202Z,0.75
2022-12-31T02:49:42.290Z,0.77
2022-12-31T02:52:34.087Z,0.80
2022-12-31T02:55:11.220Z,0.75
2022-12-31T02:57:46.891Z,0.65
2022-12-31T03:00:34.996Z,0.70
2022-12-31T03:03:03.646Z,0.65
2022-12-31T03:05:34.334Z,0.80
2022-12-31T03:08:00.753Z,1.17
2022-12-31T03:10:27.208Z,0.85
2022-12-31T03:12:53.894Z,1.00
2022-12-31T03:15:28.542Z,1.00
2022-12-31T03:18:13.777Z,0.85
2022-12-31T03:21:05.799Z,1.05
2022-12-31T03:23:39.953Z,0.95
2022-12-31T03:26:11.766Z,1.25
2022-12-31T03:28:40.234Z,1.20
2022-12-31T03:31:07.890Z,0.90
2022-12-31T03:33:38.989Z,0.85
2022-12-31T03:36:08.276Z,1.10
2022-12-31T03:38:34.892Z,1.35
2022-12-31T03:41:01.330Z,1.10
2022-12-31T03:43:27.832Z,0.85
2022-12-31T03:45:55.282Z,0.90
2022-12-31T03:48:23.351Z,0.90
2022-12-31T03:50:50.211Z,1.20
2022-12-31T03:53:17.366Z,1.17
2022-12-31T03:55:43.876Z,1.20
2022-12-31T03:58:10.630Z,1.00
2022-12-31T04:00:37.048Z,1.10
2022-12-31T04:03:03.611Z,0.98
2022-12-31T04:05:30.070Z,1.00
2022-12-31T04:07:56.499Z,1.00
2022-12-31T04:10:23.025Z,0.88
2022-12-31T04:12:49.515Z,0.90
2022-12-31T04:15:20.500Z,1.02
2022-12-31T04:17:47.950Z,0.80
2022-12-31T04:20:15.084Z,1.00
2022-12-31T04:22:41.590Z,0.93
2022-12-31T04:25:12.884Z,1.00
2022-12-31T04:30:09.861Z,0.77
2022-12-31T04:32:36.383Z,1.00
2022-12-31T04:35:02.915Z,0.90
2022-12-31T04:37:29.359Z,1.08
2022-12-31T04:40:00.324Z,1.02
2022-12-31T04:42:30.056Z,1.75
2022-12-31T04:44:56.478Z,0.80
2022-12-31T04:47:23.989Z,1.25
2022-12-31T04:49:50.700Z,2.28
2022-12-31T04:52:17.160Z,1.52
2022-12-31T04:54:43.609Z,0.85
2022-12-31T04:57:09.997Z,0.80
2022-12-31T04:59:36.448Z,1.30
2022-12-31T05:02:03.207Z,0.95
2022-12-31T05:04:29.851Z,0.70
2022-12-31T05:06:56.295Z,0.90
2022-12-31T05:09:24.160Z,1.02
2022-12-31T05:11:50.923Z,0.95
2022-12-31T05:14:17.481Z,1.08
2022-12-31T05:16:43.952Z,0.60
2022-12-31T05:19:10.385Z,0.80
2022-12-31T05:21:36.999Z,0.60
2022-12-31T05:24:03.534Z,0.70
2022-12-31T05:26:30.023Z,0.50
2022-12-31T05:28:56.567Z,0.88
2022-12-31T05:31:23.005Z,0.90
2022-12-31T05:33:49.423Z,0.65
2022-12-31T05:36:15.898Z,0.70
2022-12-31T05:38:42.415Z,0.70
2022-12-31T05:41:08.953Z,0.70
2022-12-31T05:43:36.380Z,0.55
2022-12-31T05:46:05.130Z,0.90
2022-12-31T05:48:32.084Z,0.70
2022-12-31T05:50:58.764Z,0.70
2022-12-31T05:53:25.214Z,0.73
2022-12-31T05:55:51.662Z,0.60
2022-12-31T05:58:18.206Z,0.65
2022-12-31T06:00:44.746Z,0.50
2022-12-31T06:03:11.409Z,0.63
2022-12-31T06:05:42.459Z,0.88
2022-12-31T06:08:10.345Z,0.63
2022-12-31T06:10:39.160Z,0.75
2022-12-31T06:13:05.831Z,0.98
2022-12-31T06:15:32.416Z,0.93
2022-12-31T06:17:59.031Z,0.70
2022-12-31T06:20:25.488Z,1.08
2022-12-31T06:22:51.893Z,0.70
2022-12-31T06:25:18.385Z,0.80
2022-12-31T06:27:44.809Z,0.70
2022-12-31T06:30:11.825Z,0.70
2022-12-31T06:32:39.332Z,0.60
2022-12-31T06:35:06.591Z,0.63
2022-12-31T06:37:33.069Z,0.60
2022-12-31T06:39:59.579Z,0.63
2022-12-31T06:42:29.424Z,0.85
2022-12-31T06:44:55.824Z,0.85
2022-12-31T06:47:22.212Z,0.85
2022-12-31T06:49:48.624Z,0.60
2022-12-31T06:52:15.021Z,1.17
2022-12-31T06:54:41.728Z,1.00
2022-12-31T06:57:09.217Z,0.63
2022-12-31T06:59:36.044Z,0.70
2022-12-31T07:02:14.160Z,0.68
2022-12-31T07:04:48.067Z,0.80
2022-12-31T07:07:46.697Z,0.80
2022-12-31T07:10:21.596Z,0.90
2022-12-31T07:13:04.941Z,0.60
2022-12-31T07:15:57.360Z,0.88
2022-12-31T07:18:42.156Z,0.70
2022-12-31T07:21:12.479Z,0.65
2022-12-31T07:23:40.112Z,0.87
2022-12-31T07:26:30.589Z,0.60
2022-12-31T07:29:05.161Z,0.65
2022-12-31T07:32:18.439Z,1.30
2022-12-31T07:35:09.386Z,1.00
2022-12-31T07:37:59.697Z,1.05
2022-12-31T07:41:09.335Z,1.60
2022-12-31T07:43:41.228Z,2.30
2022-12-31T07:46:34.662Z,1.55
2022-12-31T07:49:03.810Z,1.00
2022-12-31T07:51:30.506Z,1.00
2022-12-31T07:53:56.925Z,0.70
2022-12-31T07:56:23.444Z,1.08
2022-12-31T07:59:07.909Z,0.90
2022-12-31T08:02:04.598Z,0.63
2022-12-31T08:04:49.699Z,0.73
2022-12-31T08:07:33.265Z,0.70
2022-12-31T08:10:12.542Z,0.63
2022-12-31T08:12:42.880Z,0.80
2022-12-31T08:15:14.864Z,0.77
2022-12-31T08:17:41.872Z,0.90
2022-12-31T08:20:13.038Z,1.08
2022-12-31T08:25:14.047Z,0.80
2022-12-31T08:28:11.664Z,0.80
2022-12-31T08:30:56.772Z,1.50
2022-12-31T08:33:30.022Z,1.40
2022-12-31T08:36:24.679Z,1.10
2022-12-31T08:39:03.307Z,0.85
2022-12-31T08:41:42.651Z,1.02
2022-12-31T08:44:24.518Z,1.10
2022-12-31T08:49:30.254Z,0.90
2022-12-31T08:51:57.399Z,1.02
2022-12-31T08:54:24.069Z,1.05
2022-12-31T08:57:05.784Z,1.20
2022-12-31T08:59:45.852Z,1.00
2022-12-31T09:02:36.923Z,1.00
2022-12-31T09:05:20.911Z,0.80
2022-12-31T09:08:03.288Z,0.85
2022-12-31T09:10:34.818Z,0.75
2022-12-31T09:13:24.823Z,0.70
2022-12-31T09:16:45.529Z,0.90
2022-12-31T09:19:11.973Z,0.75
2022-12-31T09:21:41.914Z,0.75
2022-12-31T09:24:11.792Z,1.20
2022-12-31T09:26:38.159Z,0.98
2022-12-31T09:29:14.199Z,0.77
2022-12-31T09:31:59.610Z,1.10
2022-12-31T09:34:41.800Z,1.02
2022-12-31T09:37:18.117Z,0.77
2022-12-31T09:39:47.564Z,0.85
2022-12-31T09:42:38.696Z,0.90
2022-12-31T09:45:24.160Z,0.77
2022-12-31T09:48:08.962Z,0.60
2022-12-31T09:50:59.212Z,1.00
2022-12-31T09:53:47.453Z,0.77
2022-12-31T09:56:29.728Z,1.17
2022-12-31T09:59:28.401Z,0.90
2022-12-31T10:02:23.686Z,0.80
2022-12-31T10:05:02.506Z,0.85
2022-12-31T10:07:52.962Z,0.90
2022-12-31T10:10:59.336Z,1.45
2022-12-31T10:13:58.597Z,2.38
2022-12-31T10:16:44.223Z,2.20
2022-12-31T10:19:29.444Z,1.20
2022-12-31T10:22:18.506Z,1.33
2022-12-31T10:25:21.295Z,1.15
2022-12-31T10:28:30.384Z,0.80
2022-12-31T10:31:41.547Z,1.00
2022-12-31T10:34:17.149Z,1.00
2022-12-31T10:36:54.281Z,0.75
2022-12-31T10:39:34.351Z,0.52
2022-12-31T10:42:31.472Z,0.80
2022-12-31T10:45:35.515Z,0.80
2022-12-31T10:48:29.512Z,0.45
2022-12-31T10:51:40.202Z,0.65
2022-12-31T10:54:19.052Z,0.83
2022-12-31T10:57:09.212Z,0.70
2022-12-31T11:00:06.867Z,0.60
2022-12-31T11:03:15.217Z,0.52
2022-12-31T11:06:22.588Z,0.70
2022-12-31T11:09:27.423Z,0.60
2022-12-31T11:12:23.761Z,0.70
2022-12-31T11:15:11.449Z,0.90
2022-12-31T11:17:52.194Z,1.00
2022-12-31T11:20:27.311Z,0.80
2022-12-31T11:23:04.682Z,1.15
2022-12-31T11:25:48.056Z,1.10
2022-12-31T11:28:26.214Z,1.30
2022-12-31T11:31:04.864Z,1.58
2022-12-31T11:33:52.878Z,1.10
2022-12-31T11:36:32.913Z,0.98
2022-12-31T11:39:27.267Z,1.10
2022-12-31T11:42:23.884Z,0.90
2022-12-31T11:44:59.395Z,0.90
2022-12-31T11:51:18.242Z,1.30
2022-12-31T11:53:51.917Z,1.30
2022-12-31T11:56:21.113Z,1.20
2022-12-31T11:58:51.017Z,1.05
2022-12-31T12:01:22.402Z,0.80
2022-12-31T12:03:49.156Z,0.73
2022-12-31T12:06:28.739Z,1.05
2022-12-31T12:09:07.838Z,1.02
2022-12-31T12:11:37.379Z,0.90
2022-12-31T12:14:20.482Z,0.90
2022-12-31T12:16:47.222Z,0.88
2022-12-31T12:19:18.418Z,1.00
2022-12-31T12:21:47.386Z,1.23
2022-12-31T12:24:22.681Z,0.90
2022-12-31T12:26:49.256Z,1.00
2022-12-31T12:29:26.272Z,1.23
2022-12-31T12:31:59.909Z,1.40
2022-12-31T12:34:30.003Z,1.23
2022-12-31T12:36:57.176Z,1.10
2022-12-31T12:39:26.324Z,0.80
2022-12-31T12:42:04.963Z,0.90
2022-12-31T12:44:31.886Z,0.85
2022-12-31T12:47:00.886Z,1.02
2022-12-31T12:49:42.554Z,1.00
2022-12-31T12:52:32.743Z,0.98
2022-12-31T12:55:17.920Z,1.08
2022-12-31T12:58:06.127Z,1.13
2022-12-31T13:01:18.998Z,1.20
2022-12-31T13:04:33.881Z,1.25
2022-12-31T13:07:15.855Z,1.33
2022-12-31T13:09:54.072Z,1.23
2022-12-31T13:13:21.631Z,0.90
2022-12-31T13:15:35.996Z,1.63
2022-12-31T13:18:23.943Z,0.85
2022-12-31T13:21:00.850Z,1.10
2022-12-31T13:23:40.046Z,1.13
2022-12-31T13:26:35.508Z,1.02
2022-12-31T13:29:03.779Z,1.23
2022-12-31T13:31:34.440Z,1.23
2022-12-31T13:34:27.096Z,1.20
2022-12-31T13:36:57.281Z,1.20
2022-12-31T13:39:28.384Z,1.30
2022-12-31T13:42:19.456Z,1.17
2022-12-31T13:45:00.125Z,1.20
2022-12-31T13:47:38.408Z,1.20
2022-12-31T13:50:15.114Z,1.15
2022-12-31T13:52:48.697Z,1.58
2022-12-31T13:55:30.035Z,2.10
2022-12-31T14:00:41.012Z,1.40
2022-12-31T14:03:13.925Z,1.50
2022-12-31T14:05:56.634Z,1.30
2022-12-31T14:08:23.110Z,1.55
2022-12-31T14:11:23.421Z,1.65
2022-12-31T14:14:08.594Z,1.55
2022-12-31T14:16:51.603Z,1.33
2022-12-31T14:19:57.170Z,1.52
2022-12-31T14:22:37.701Z,1.67
2022-12-31T14:25:16.642Z,1.20
2022-12-31T14:27:46.527Z,1.10
2022-12-31T14:30:17.819Z,1.05
2022-12-31T14:32:59.156Z,1.20
2022-12-31T14:38:26.486Z,1.25
2022-12-31T14:41:11.012Z,1.20
2022-12-31T14:44:12.789Z,1.20
2022-12-31T14:47:00.842Z,1.95
2022-12-31T14:49:45.503Z,1.50
2022-12-31T14:52:31.678Z,2.40
2022-12-31T14:55:23.569Z,1.60
2022-12-31T15:00:39.920Z,1.50
2022-12-31T15:03:23.846Z,1.02
2022-12-31T15:05:53.875Z,1.20
2022-12-31T15:08:48.301Z,1.08
2022-12-31T15:11:39.737Z,1.30
2022-12-31T15:16:54.441Z,1.00
2022-12-31T15:20:16.947Z,1.00
2022-12-31T15:22:44.184Z,0.90
2022-12-31T15:25:41.275Z,1.45
2022-12-31T15:28:25.429Z,1.30
2022-12-31T15:30:56.191Z,2.25
2022-12-31T15:33:40.922Z,3.53
2022-12-31T15:36:13.973Z,2.75
2022-12-31T15:38:41.706Z,7.15
2022-12-31T15:41:19.925Z,34.33
2022-12-31T15:43:54.648Z,12.27
2022-12-31T15:46:28.264Z,7.97
2022-12-31T15:49:06.772Z,4.97
2022-12-31T15:51:56.025Z,5.70
2022-12-31T15:54:38.051Z,4.60
2022-12-31T15:57:09.420Z,3.17
2022-12-31T15:59:38.107Z,4.70
2022-12-31T16:02:05.247Z,6.88
2022-12-31T16:04:33.585Z,6.57
2022-12-31T16:07:02.537Z,6.75
2022-12-31T16:09:34.839Z,7.05
2022-12-31T16:12:03.696Z,4.97
2022-12-31T16:14:54.136Z,3.10
2022-12-31T16:17:29.497Z,4.20
2022-12-31T16:19:58.384Z,3.05
2022-12-31T16:22:39.374Z,2.70
2022-12-31T16:27:54.753Z,2.60
2022-12-31T16:30:25.508Z,6.18
2022-12-31T16:32:54.859Z,18.63
2022-12-31T16:35:39.123Z,21.88
2022-12-31T16:38:13.211Z,27.70
2022-12-31T16:41:00.668Z,23.30
2022-12-31T16:43:35.387Z,14.68
2022-12-31T16:46:26.615Z,11.68
2022-12-31T16:48:57.135Z,13.00
2022-12-31T16:51:32.407Z,13.97
2022-12-31T16:54:01.225Z,16.38
2022-12-31T16:56:39.252Z,29.02
2022-12-31T16:59:26.433Z,7.68
2022-12-31T17:01:57.067Z,4.80
2022-12-31T17:04:24.271Z,5.80
2022-12-31T17:06:50.843Z,8.73
2022-12-31T17:09:21.101Z,3.00
2022-12-31T17:11:52.434Z,4.30
2022-12-31T17:17:06.142Z,3.20
2022-12-31T17:19:42.942Z,3.13
2022-12-31T17:22:36.973Z,3.42
2022-12-31T17:25:03.766Z,4.70
2022-12-31T17:27:30.434Z,1.90
2022-12-31T17:30:29.334Z,1.30
2022-12-31T17:33:04.522Z,1.17
2022-12-31T17:35:34.150Z,1.20
2022-12-31T17:38:22.658Z,1.27
2022-12-31T17:41:13.345Z,1.38
2022-12-31T17:43:40.229Z,1.55
2022-12-31T17:46:12.793Z,1.38
2022-12-31T17:48:39.771Z,1.17
2022-12-31T17:51:06.437Z,1.58
2022-12-31T17:53:32.944Z,2.35
2022-12-31T17:56:05.434Z,1.60
2022-12-31T17:58:37.523Z,2.28
2022-12-31T18:01:08.791Z,1.67
2022-12-31T18:03:35.923Z,1.80
2022-12-31T18:06:02.862Z,1.40
2022-12-31T18:08:29.309Z,1.90
2022-12-31T18:10:55.938Z,1.48
2022-12-31T18:13:27.051Z,1.20
2022-12-31T18:15:54.506Z,0.90
2022-12-31T18:18:26.419Z,1.15
2022-12-31T18:20:58.090Z,1.70
2022-12-31T18:23:30.540Z,1.63
2022-12-31T18:25:57.196Z,1.80
2022-12-31T18:28:23.618Z,1.10
2022-12-31T18:30:50.250Z,1.20
2022-12-31T18:33:22.191Z,1.90
2022-12-31T18:36:08.417Z,1.30
2022-12-31T18:38:35.916Z,1.50
2022-12-31T18:41:02.344Z,1.90
2022-12-31T18:43:28.739Z,1.63
2022-12-31T18:45:55.313Z,1.80
2022-12-31T18:48:21.773Z,3.00
2022-12-31T18:50:48.646Z,3.13
2022-12-31T18:53:25.130Z,3.70
2022-12-31T18:55:57.150Z,2.72
2022-12-31T18:58:24.224Z,2.20
2022-12-31T19:00:51.647Z,1.52
2022-12-31T19:03:21.839Z,1.88
2022-12-31T19:05:50.572Z,2.25
2022-12-31T19:08:18.437Z,1.95
2022-12-31T19:10:45.412Z,2.67
2022-12-31T19:13:14.076Z,2.33
2022-12-31T19:15:46.130Z,1.95
2022-12-31T19:18:12.624Z,2.35
2022-12-31T19:20:39.635Z,3.92
2022-12-31T19:23:06.100Z,1.60
2022-12-31T19:25:34.909Z,2.17
2022-12-31T19:28:13.031Z,1.90
2022-12-31T19:30:39.485Z,1.60
2022-12-31T19:33:05.921Z,1.35
2022-12-31T19:35:32.423Z,1.30
2022-12-31T19:40:30.734Z,1.60
2022-12-31T19:42:57.729Z,1.35
2022-12-31T19:45:29.140Z,3.55
2022-12-31T19:47:56.768Z,2.25
2022-12-31T19:50:26.633Z,3.55
2022-12-31T19:52:56.535Z,1.00
2022-12-31T19:55:26.183Z,1.08
2022-12-31T19:57:52.755Z,1.17
2022-12-31T20:00:20.387Z,1.20
2022-12-31T20:02:48.550Z,1.15
2022-12-31T20:05:16.322Z,1.10
2022-12-31T20:07:43.067Z,1.20
2022-12-31T20:10:10.767Z,1.88
2022-12-31T20:12:43.978Z,2.17
2022-12-31T20:15:10.967Z,1.27
2022-12-31T20:17:37.558Z,2.20
2022-12-31T20:20:05.200Z,1.27
2022-12-31T20:22:31.703Z,1.45
2022-12-31T20:24:58.250Z,1.20
2022-12-31T20:27:24.775Z,1.30
2022-12-31T20:29:51.187Z,1.48
2022-12-31T20:32:17.616Z,1.52
2022-12-31T20:34:44.037Z,1.70
2022-12-31T20:37:10.451Z,2.22
2022-12-31T20:39:37.511Z,1.95
2022-12-31T20:42:04.605Z,2.50
2022-12-31T20:44:31.112Z,2.20
2022-12-31T20:46:57.543Z,1.98
2022-12-31T20:49:52.120Z,5.40
2022-12-31T20:52:10.315Z,5.00
2022-12-31T20:54:37.423Z,3.72
2022-12-31T20:57:03.982Z,3.10
2022-12-31T20:59:30.439Z,2.88
2022-12-31T21:02:20.596Z,2.92
2022-12-31T21:04:45.283Z,3.50
2022-12-31T21:07:12.082Z,2.70
2022-12-31T21:09:38.607Z,2.10
2022-12-31T21:12:23.978Z,2.38
2022-12-31T21:14:50.398Z,1.63
2022-12-31T21:17:16.819Z,1.55
2022-12-31T21:19:43.233Z,1.98
2022-12-31T21:22:09.654Z,1.70
2022-12-31T21:24:36.045Z,1.70
2022-12-31T21:27:02.441Z,1.52
2022-12-31T21:29:34.148Z,1.80
2022-12-31T21:32:01.150Z,1.67
2022-12-31T21:34:27.613Z,1.55
2022-12-31T21:36:54.097Z,1.70
2022-12-31T21:39:21.553Z,1.63
2022-12-31T21:41:50.925Z,2.13
2022-12-31T21:44:22.941Z,2.60
2022-12-31T21:47:33.187Z,2.28
2022-12-31T21:52:26.004Z,1.73
2022-12-31T21:55:15.836Z,2.30
2022-12-31T21:58:15.575Z,4.72
2022-12-31T22:00:48.476Z,3.05
2022-12-31T22:03:24.211Z,3.63
2022-12-31T22:05:54.103Z,1.58
2022-12-31T22:08:22.725Z,1.73
2022-12-31T22:10:52.720Z,1.80
2022-12-31T22:13:19.734Z,1.45
2022-12-31T22:15:47.608Z,1.67
2022-12-31T22:18:15.782Z,1.67
2022-12-31T22:20:42.374Z,1.63
2022-12-31T22:23:08.919Z,1.70
2022-12-31T22:25:36.666Z,1.90
2022-12-31T22:28:36.685Z,1.60
2022-12-31T22:30:50.336Z,1.67
2022-12-31T22:33:17.014Z,1.73
2022-12-31T22:35:43.489Z,1.38
2022-12-31T22:38:12.152Z,1.83
2022-12-31T22:40:39.273Z,1.83
2022-12-31T22:43:05.681Z,1.50
2022-12-31T22:45:32.120Z,1.77
2022-12-31T22:47:58.519Z,1.50
2022-12-31T22:50:24.984Z,1.60
2022-12-31T22:52:51.548Z,1.67
2022-12-31T22:55:18.006Z,1.92
2022-12-31T22:57:44.421Z,2.00
2022-12-31T23:00:12.762Z,2.88
2022-12-31T23:02:41.899Z,7.72
2022-12-31T23:05:15.549Z,50.53
2022-12-31T23:07:42.397Z,69.85
2022-12-31T23:10:27.735Z,128.27
2022-12-31T23:12:54.140Z,123.65
2022-12-31T23:15:38.991Z,40.65
2022-12-31T23:18:23.898Z,16.23
2022-12-31T23:21:08.564Z,26.67
2022-12-31T23:23:35.058Z,14.60
2022-12-31T23:26:02.172Z,12.57
2022-12-31T23:28:28.601Z,23.45
2022-12-31T23:30:55.076Z,15.40
2022-12-31T23:33:24.188Z,8.65
2022-12-31T23:35:50.721Z,2.85
2022-12-31T23:38:18.379Z,3.45
2022-12-31T23:40:45.420Z,3.55
2022-12-31T23:43:20.109Z,4.43
2022-12-31T23:45:46.582Z,5.47
2022-12-31T23:48:13.005Z,6.30
2022-12-31T23:50:40.349Z,6.57
2022-12-31T23:53:06.774Z,7.57
2022-12-31T23:55:33.233Z,9.55
2022-12-31T23:57:59.624Z,11.07
